DAL1100 KATL-KRDU
Flight info
| Callsign | DAL1100 |
|---|---|
| Flight time | 1h 0m |
| Altitude | 35000 |
| Route | GAIRY2 IRQ PYRES DMSTR2 |
| Aircraft | B739/M-SDE2E3FGHIRWXY/LB1 |
Departure
| Time | 2026-05-06 14:50 |
|---|---|
| Airport | Hartsfield Jackson Atlanta International Airport (KATL) |
Arrival
| Time | 2026-05-06 15:51 |
|---|---|
| Airport | Raleigh-Durham International Airport (KRDU) |
| Time | Latitude | Longitude | Altitude | Speed | Heading |
|---|---|---|---|---|---|
| 2026-05-06 14:32 | 33.63810 | -84.42878 | 1034 ft | 0 kts | 288° |
| 2026-05-06 14:32 | 33.63810 | -84.42880 | 1034 ft | 0 kts | 287° |
| 2026-05-06 14:42 | 33.63806 | -84.42864 | 1034 ft | 4 kts | 280° |
| 2026-05-06 14:43 | 33.63805 | -84.42832 | 1034 ft | 4 kts | 251° |
| 2026-05-06 14:43 | 33.63818 | -84.42811 | 1034 ft | 4 kts | 191° |
| 2026-05-06 14:43 | 33.63828 | -84.42809 | 1034 ft | 1 kts | 180° |
| 2026-05-06 14:43 | 33.63829 | -84.42809 | 1034 ft | 0 kts | 180° |
| 2026-05-06 14:45 | 33.63824 | -84.42809 | 1034 ft | 2 kts | 180° |
| 2026-05-06 14:45 | 33.63784 | -84.42809 | 1034 ft | 9 kts | 180° |
| 2026-05-06 14:46 | 33.63700 | -84.42806 | 1034 ft | 15 kts | 167° |
| 2026-05-06 14:46 | 33.63657 | -84.42685 | 1035 ft | 19 kts | 92° |
| 2026-05-06 14:46 | 33.63656 | -84.42516 | 1035 ft | 22 kts | 90° |
| 2026-05-06 14:46 | 33.63656 | -84.42321 | 1035 ft | 25 kts | 90° |
| 2026-05-06 14:47 | 33.63656 | -84.42107 | 1035 ft | 27 kts | 90° |
| 2026-05-06 14:47 | 33.63657 | -84.41885 | 1034 ft | 26 kts | 90° |
| 2026-05-06 14:47 | 33.63657 | -84.41676 | 1034 ft | 24 kts | 90° |
| 2026-05-06 14:47 | 33.63656 | -84.41480 | 1034 ft | 23 kts | 90° |
| 2026-05-06 14:48 | 33.63655 | -84.41292 | 1034 ft | 22 kts | 90° |
| 2026-05-06 14:48 | 33.63656 | -84.41109 | 1034 ft | 22 kts | 90° |
| 2026-05-06 14:48 | 33.63656 | -84.40931 | 1034 ft | 21 kts | 90° |
| 2026-05-06 14:48 | 33.63607 | -84.40834 | 1035 ft | 14 kts | 178° |
| 2026-05-06 14:49 | 33.63511 | -84.40835 | 1035 ft | 14 kts | 180° |
| 2026-05-06 14:49 | 33.63472 | -84.40917 | 1035 ft | 13 kts | 271° |
| 2026-05-06 14:49 | 33.63472 | -84.41167 | 1033 ft | 61 kts | 270° |
| 2026-05-06 14:49 | 33.63471 | -84.41945 | 1035 ft | 123 kts | 270° |
| 2026-05-06 14:50 | 33.63465 | -84.43179 | 1055 ft | 168 kts | 267° |
| 2026-05-06 14:50 | 33.63441 | -84.44606 | 1544 ft | 176 kts | 268° |
| 2026-05-06 14:50 | 33.63431 | -84.46109 | 2101 ft | 182 kts | 268° |
| 2026-05-06 14:50 | 33.63307 | -84.47666 | 2515 ft | 200 kts | 249° |
| 2026-05-06 14:51 | 33.62648 | -84.49220 | 2718 ft | 220 kts | 242° |
| 2026-05-06 14:51 | 33.61935 | -84.50915 | 3131 ft | 235 kts | 243° |
| 2026-05-06 14:51 | 33.61171 | -84.52759 | 3480 ft | 255 kts | 243° |
| 2026-05-06 14:51 | 33.60379 | -84.54676 | 4368 ft | 256 kts | 243° |
| 2026-05-06 14:52 | 33.59538 | -84.56565 | 5210 ft | 259 kts | 233° |
| 2026-05-06 14:52 | 33.58150 | -84.57937 | 5968 ft | 264 kts | 206° |
| 2026-05-06 14:52 | 33.56357 | -84.58518 | 6706 ft | 272 kts | 187° |
| 2026-05-06 14:52 | 33.54448 | -84.58573 | 7450 ft | 277 kts | 181° |
| 2026-05-06 14:53 | 33.52503 | -84.58530 | 8155 ft | 282 kts | 181° |
| 2026-05-06 14:53 | 33.50554 | -84.58493 | 8861 ft | 285 kts | 182° |
| 2026-05-06 14:53 | 33.49210 | -84.58384 | 9331 ft | 290 kts | 170° |
| 2026-05-06 14:53 | 33.47357 | -84.57384 | 9968 ft | 300 kts | 143° |
| 2026-05-06 14:54 | 33.45752 | -84.54595 | 10446 ft | 329 kts | 106° |
| 2026-05-06 14:54 | 33.45528 | -84.51783 | 10651 ft | 351 kts | 91° |
| 2026-05-06 14:54 | 33.45553 | -84.48782 | 10852 ft | 369 kts | 90° |
| 2026-05-06 14:54 | 33.45584 | -84.46686 | 11132 ft | 376 kts | 90° |
| 2026-05-06 14:55 | 33.45616 | -84.43541 | 11720 ft | 379 kts | 90° |
| 2026-05-06 14:55 | 33.45621 | -84.40370 | 12349 ft | 383 kts | 91° |
| 2026-05-06 14:55 | 33.45603 | -84.36131 | 13133 ft | 387 kts | 91° |
| 2026-05-06 14:55 | 33.45591 | -84.33989 | 13497 ft | 390 kts | 90° |
| 2026-05-06 14:56 | 33.45693 | -84.30730 | 14020 ft | 395 kts | 86° |
| 2026-05-06 14:56 | 33.45943 | -84.27440 | 14587 ft | 398 kts | 84° |
| 2026-05-06 14:56 | 33.46240 | -84.24128 | 15133 ft | 401 kts | 83° |
| 2026-05-06 14:56 | 33.46548 | -84.20790 | 15688 ft | 405 kts | 83° |
| 2026-05-06 14:57 | 33.46848 | -84.17430 | 16176 ft | 408 kts | 84° |
| 2026-05-06 14:57 | 33.47132 | -84.14025 | 16646 ft | 413 kts | 84° |
| 2026-05-06 14:57 | 33.47409 | -84.10595 | 17161 ft | 416 kts | 84° |
| 2026-05-06 14:57 | 33.47683 | -84.07139 | 17655 ft | 419 kts | 84° |
| 2026-05-06 14:58 | 33.47956 | -84.03648 | 18132 ft | 422 kts | 84° |
| 2026-05-06 14:58 | 33.48232 | -84.00136 | 18596 ft | 426 kts | 84° |
| 2026-05-06 14:58 | 33.48506 | -83.96597 | 19077 ft | 428 kts | 83° |
| 2026-05-06 14:58 | 33.48779 | -83.93038 | 19567 ft | 430 kts | 83° |
| 2026-05-06 14:59 | 33.49053 | -83.89462 | 20015 ft | 432 kts | 83° |
| 2026-05-06 14:59 | 33.49328 | -83.85865 | 20435 ft | 436 kts | 83° |
| 2026-05-06 14:59 | 33.49605 | -83.82238 | 20854 ft | 439 kts | 83° |
| 2026-05-06 14:59 | 33.49883 | -83.78588 | 21282 ft | 441 kts | 84° |
| 2026-05-06 15:00 | 33.50160 | -83.74921 | 21691 ft | 443 kts | 83° |
| 2026-05-06 15:00 | 33.50439 | -83.71231 | 22098 ft | 446 kts | 84° |
| 2026-05-06 15:00 | 33.50718 | -83.67513 | 22486 ft | 448 kts | 84° |
| 2026-05-06 15:00 | 33.51000 | -83.63781 | 22862 ft | 451 kts | 83° |
| 2026-05-06 15:01 | 33.51398 | -83.60052 | 23222 ft | 453 kts | 80° |
| 2026-05-06 15:01 | 33.51905 | -83.56321 | 23577 ft | 455 kts | 78° |
| 2026-05-06 15:01 | 33.52457 | -83.52578 | 23933 ft | 457 kts | 78° |
| 2026-05-06 15:01 | 33.53018 | -83.48826 | 24274 ft | 459 kts | 78° |
| 2026-05-06 15:02 | 33.53573 | -83.45051 | 24585 ft | 461 kts | 78° |
| 2026-05-06 15:02 | 33.54119 | -83.41247 | 24887 ft | 464 kts | 79° |
| 2026-05-06 15:02 | 33.54649 | -83.37476 | 25203 ft | 466 kts | 79° |
| 2026-05-06 15:02 | 33.55180 | -83.33632 | 25539 ft | 468 kts | 79° |
| 2026-05-06 15:03 | 33.55710 | -83.29771 | 25860 ft | 470 kts | 79° |
| 2026-05-06 15:03 | 33.56239 | -83.25891 | 26176 ft | 473 kts | 79° |
| 2026-05-06 15:03 | 33.56769 | -83.21993 | 26467 ft | 475 kts | 79° |
| 2026-05-06 15:03 | 33.57302 | -83.18073 | 26758 ft | 477 kts | 79° |
| 2026-05-06 15:04 | 33.57835 | -83.14137 | 27058 ft | 479 kts | 79° |
| 2026-05-06 15:04 | 33.58370 | -83.10179 | 27342 ft | 481 kts | 79° |
| 2026-05-06 15:04 | 33.58906 | -83.06209 | 27613 ft | 483 kts | 79° |
| 2026-05-06 15:04 | 33.59444 | -83.02221 | 27880 ft | 486 kts | 79° |
| 2026-05-06 15:05 | 33.59983 | -82.98216 | 28156 ft | 487 kts | 79° |
| 2026-05-06 15:05 | 33.60520 | -82.94198 | 28424 ft | 489 kts | 79° |
| 2026-05-06 15:05 | 33.61059 | -82.90157 | 28674 ft | 491 kts | 79° |
| 2026-05-06 15:05 | 33.61601 | -82.86098 | 28934 ft | 493 kts | 79° |
| 2026-05-06 15:06 | 33.62144 | -82.82022 | 29191 ft | 495 kts | 79° |
| 2026-05-06 15:06 | 33.62686 | -82.77936 | 29433 ft | 497 kts | 79° |
| 2026-05-06 15:06 | 33.63228 | -82.73833 | 29676 ft | 499 kts | 79° |
| 2026-05-06 15:06 | 33.63770 | -82.69720 | 29986 ft | 499 kts | 79° |
| 2026-05-06 15:07 | 33.64309 | -82.65616 | 30361 ft | 497 kts | 79° |
| 2026-05-06 15:07 | 33.64846 | -82.61524 | 30738 ft | 496 kts | 79° |
| 2026-05-06 15:07 | 33.65374 | -82.57484 | 31042 ft | 497 kts | 79° |
| 2026-05-06 15:07 | 33.65911 | -82.53374 | 31324 ft | 498 kts | 79° |
| 2026-05-06 15:08 | 33.66446 | -82.49273 | 31636 ft | 497 kts | 79° |
| 2026-05-06 15:08 | 33.66979 | -82.45171 | 31982 ft | 496 kts | 79° |
| 2026-05-06 15:08 | 33.67508 | -82.41089 | 32333 ft | 495 kts | 79° |
| 2026-05-06 15:08 | 33.68037 | -82.37010 | 32617 ft | 495 kts | 79° |
| 2026-05-06 15:09 | 33.68563 | -82.32924 | 32852 ft | 495 kts | 79° |
| 2026-05-06 15:09 | 33.69086 | -82.28829 | 33066 ft | 497 kts | 79° |
| 2026-05-06 15:09 | 33.69610 | -82.24732 | 33305 ft | 497 kts | 79° |
| 2026-05-06 15:09 | 33.70139 | -82.20624 | 33559 ft | 498 kts | 79° |
| 2026-05-06 15:10 | 33.70666 | -82.16522 | 33826 ft | 497 kts | 78° |
| 2026-05-06 15:10 | 33.71400 | -82.12481 | 34073 ft | 494 kts | 72° |
| 2026-05-06 15:10 | 33.72373 | -82.08526 | 34286 ft | 494 kts | 69° |
| 2026-05-06 15:10 | 33.73442 | -82.04603 | 34469 ft | 495 kts | 68° |
| 2026-05-06 15:11 | 33.74529 | -82.00674 | 34646 ft | 496 kts | 69° |
| 2026-05-06 15:11 | 33.75598 | -81.96726 | 34865 ft | 497 kts | 69° |
| 2026-05-06 15:11 | 33.76631 | -81.92775 | 35109 ft | 496 kts | 70° |
| 2026-05-06 15:12 | 33.78648 | -81.84806 | 35098 ft | 498 kts | 70° |
| 2026-05-06 15:12 | 33.80633 | -81.76846 | 35093 ft | 496 kts | 70° |
| 2026-05-06 15:13 | 33.82607 | -81.68925 | 35095 ft | 493 kts | 70° |
| 2026-05-06 15:13 | 33.84574 | -81.61047 | 35094 ft | 491 kts | 70° |
| 2026-05-06 15:14 | 33.86659 | -81.53253 | 35074 ft | 486 kts | 59° |
| 2026-05-06 15:14 | 33.90054 | -81.46299 | 35071 ft | 482 kts | 53° |
| 2026-05-06 15:15 | 33.93649 | -81.39475 | 35072 ft | 483 kts | 53° |
| 2026-05-06 15:15 | 33.97167 | -81.32622 | 35078 ft | 485 kts | 54° |
| 2026-05-06 15:16 | 34.00665 | -81.25637 | 35078 ft | 488 kts | 54° |
| 2026-05-06 15:16 | 34.04170 | -81.18592 | 35070 ft | 491 kts | 55° |
| 2026-05-06 15:17 | 34.07685 | -81.11510 | 35063 ft | 492 kts | 55° |
| 2026-05-06 15:17 | 34.11207 | -81.04406 | 35067 ft | 493 kts | 55° |
| 2026-05-06 15:18 | 34.14722 | -80.97311 | 35071 ft | 492 kts | 55° |
| 2026-05-06 15:18 | 34.18225 | -80.90223 | 35073 ft | 490 kts | 55° |
| 2026-05-06 15:19 | 34.21710 | -80.83157 | 35070 ft | 488 kts | 55° |
| 2026-05-06 15:19 | 34.25171 | -80.76124 | 35066 ft | 486 kts | 55° |
| 2026-05-06 15:20 | 34.28596 | -80.69151 | 35084 ft | 485 kts | 55° |
| 2026-05-06 15:20 | 34.31969 | -80.62259 | 35056 ft | 461 kts | 55° |
| 2026-05-06 15:20 | 34.33572 | -80.58974 | 35059 ft | 446 kts | 55° |
| 2026-05-06 15:21 | 34.35123 | -80.55797 | 35056 ft | 432 kts | 54° |
| 2026-05-06 15:21 | 34.38175 | -80.49561 | 35099 ft | 433 kts | 54° |
| 2026-05-06 15:22 | 34.41276 | -80.43226 | 35102 ft | 442 kts | 55° |
| 2026-05-06 15:22 | 34.44431 | -80.36753 | 35076 ft | 450 kts | 55° |
| 2026-05-06 15:23 | 34.47602 | -80.30220 | 35069 ft | 449 kts | 55° |
| 2026-05-06 15:23 | 34.50767 | -80.23687 | 35066 ft | 449 kts | 55° |
| 2026-05-06 15:24 | 34.53923 | -80.17167 | 35066 ft | 448 kts | 55° |
| 2026-05-06 15:24 | 34.57069 | -80.10656 | 35068 ft | 447 kts | 55° |
| 2026-05-06 15:25 | 34.60183 | -80.04198 | 35069 ft | 446 kts | 55° |
| 2026-05-06 15:25 | 34.61741 | -80.00959 | 34900 ft | 443 kts | 55° |
| 2026-05-06 15:25 | 34.63299 | -79.97723 | 34198 ft | 446 kts | 55° |
| 2026-05-06 15:25 | 34.64886 | -79.94427 | 33100 ft | 459 kts | 56° |
| 2026-05-06 15:26 | 34.66514 | -79.91044 | 32155 ft | 467 kts | 56° |
| 2026-05-06 15:26 | 34.68218 | -79.87696 | 31588 ft | 461 kts | 48° |
| 2026-05-06 15:26 | 34.70475 | -79.85035 | 31165 ft | 445 kts | 32° |
| 2026-05-06 15:26 | 34.72984 | -79.82855 | 30465 ft | 445 kts | 31° |
| 2026-05-06 15:27 | 34.75552 | -79.80662 | 29375 ft | 456 kts | 31° |
| 2026-05-06 15:27 | 34.78153 | -79.78431 | 28577 ft | 458 kts | 32° |
| 2026-05-06 15:27 | 34.80740 | -79.76186 | 27967 ft | 455 kts | 32° |
| 2026-05-06 15:27 | 34.83293 | -79.73948 | 27437 ft | 448 kts | 33° |
| 2026-05-06 15:28 | 34.85807 | -79.71728 | 26381 ft | 447 kts | 33° |
| 2026-05-06 15:28 | 34.88330 | -79.69496 | 25223 ft | 449 kts | 33° |
| 2026-05-06 15:28 | 34.90854 | -79.67258 | 24253 ft | 446 kts | 33° |
| 2026-05-06 15:28 | 34.93345 | -79.65046 | 23411 ft | 440 kts | 33° |
| 2026-05-06 15:29 | 34.95800 | -79.62864 | 22602 ft | 434 kts | 33° |
| 2026-05-06 15:29 | 34.98223 | -79.60711 | 21796 ft | 428 kts | 33° |
| 2026-05-06 15:29 | 35.00609 | -79.58592 | 20968 ft | 422 kts | 33° |
| 2026-05-06 15:29 | 35.02973 | -79.56491 | 20146 ft | 417 kts | 33° |
| 2026-05-06 15:30 | 35.05302 | -79.54419 | 19342 ft | 411 kts | 33° |
| 2026-05-06 15:30 | 35.07600 | -79.52373 | 18517 ft | 407 kts | 33° |
| 2026-05-06 15:30 | 35.09879 | -79.50355 | 17724 ft | 402 kts | 31° |
| 2026-05-06 15:30 | 35.12348 | -79.48915 | 16952 ft | 388 kts | 10° |
| 2026-05-06 15:31 | 35.14945 | -79.48418 | 16496 ft | 371 kts | 2° |
| 2026-05-06 15:31 | 35.17494 | -79.48106 | 15799 ft | 367 kts | 2° |
| 2026-05-06 15:31 | 35.20025 | -79.47812 | 15554 ft | 360 kts | 2° |
| 2026-05-06 15:32 | 35.24986 | -79.47194 | 15102 ft | 356 kts | 2° |
| 2026-05-06 15:32 | 35.27407 | -79.46875 | 14890 ft | 355 kts | 3° |
| 2026-05-06 15:32 | 35.29864 | -79.46545 | 14678 ft | 354 kts | 3° |
| 2026-05-06 15:32 | 35.32311 | -79.46215 | 14464 ft | 354 kts | 3° |
| 2026-05-06 15:33 | 35.34748 | -79.45714 | 14216 ft | 359 kts | 17° |
| 2026-05-06 15:33 | 35.36938 | -79.44226 | 14023 ft | 362 kts | 35° |
| 2026-05-06 15:33 | 35.38898 | -79.42294 | 13800 ft | 363 kts | 37° |
| 2026-05-06 15:33 | 35.40830 | -79.40306 | 13585 ft | 363 kts | 38° |
| 2026-05-06 15:34 | 35.42766 | -79.38305 | 13353 ft | 363 kts | 38° |
| 2026-05-06 15:34 | 35.44701 | -79.36316 | 13135 ft | 364 kts | 38° |
| 2026-05-06 15:34 | 35.46644 | -79.34331 | 12907 ft | 363 kts | 38° |
| 2026-05-06 15:34 | 35.48583 | -79.32358 | 12681 ft | 362 kts | 38° |
| 2026-05-06 15:35 | 35.50521 | -79.30394 | 12453 ft | 361 kts | 38° |
| 2026-05-06 15:35 | 35.52454 | -79.28438 | 12230 ft | 359 kts | 37° |
| 2026-05-06 15:35 | 35.54380 | -79.26493 | 12011 ft | 357 kts | 38° |
| 2026-05-06 15:35 | 35.56296 | -79.24557 | 11797 ft | 356 kts | 38° |
| 2026-05-06 15:36 | 35.58205 | -79.22625 | 11579 ft | 356 kts | 38° |
| 2026-05-06 15:36 | 35.60089 | -79.20717 | 11352 ft | 354 kts | 38° |
| 2026-05-06 15:36 | 35.61988 | -79.18792 | 11146 ft | 353 kts | 38° |
| 2026-05-06 15:36 | 35.63815 | -79.16773 | 10892 ft | 353 kts | 47° |
| 2026-05-06 15:37 | 35.65302 | -79.14397 | 10628 ft | 348 kts | 53° |
| 2026-05-06 15:37 | 35.66683 | -79.11990 | 10353 ft | 342 kts | 54° |
| 2026-05-06 15:37 | 35.68040 | -79.09621 | 10087 ft | 335 kts | 54° |
| 2026-05-06 15:37 | 35.69380 | -79.07314 | 9965 ft | 325 kts | 53° |
| 2026-05-06 15:38 | 35.70673 | -79.05119 | 9937 ft | 308 kts | 53° |
| 2026-05-06 15:38 | 35.71915 | -79.03020 | 9466 ft | 305 kts | 53° |
| 2026-05-06 15:38 | 35.73149 | -79.00944 | 9169 ft | 297 kts | 53° |
| 2026-05-06 15:38 | 35.74355 | -78.98922 | 8911 ft | 291 kts | 53° |
| 2026-05-06 15:39 | 35.75546 | -78.96917 | 8675 ft | 290 kts | 53° |
| 2026-05-06 15:39 | 35.76739 | -78.94919 | 8448 ft | 289 kts | 53° |
| 2026-05-06 15:39 | 35.77930 | -78.92920 | 8220 ft | 290 kts | 53° |
| 2026-05-06 15:39 | 35.78784 | -78.91661 | 8048 ft | 288 kts | 40° |
| 2026-05-06 15:40 | 35.80494 | -78.90462 | 7868 ft | 281 kts | 15° |
| 2026-05-06 15:40 | 35.82376 | -78.89854 | 7685 ft | 279 kts | 11° |
| 2026-05-06 15:40 | 35.84265 | -78.89295 | 7490 ft | 279 kts | 11° |
| 2026-05-06 15:40 | 35.86134 | -78.88729 | 7294 ft | 274 kts | 11° |
| 2026-05-06 15:41 | 35.87971 | -78.88153 | 7104 ft | 270 kts | 12° |
| 2026-05-06 15:41 | 35.89777 | -78.87589 | 6887 ft | 266 kts | 11° |
| 2026-05-06 15:41 | 35.91558 | -78.87031 | 6693 ft | 263 kts | 12° |
| 2026-05-06 15:41 | 35.93313 | -78.86479 | 6466 ft | 258 kts | 12° |
| 2026-05-06 15:42 | 35.94915 | -78.85531 | 6251 ft | 257 kts | 40° |
| 2026-05-06 15:42 | 35.96181 | -78.83977 | 6096 ft | 256 kts | 44° |
| 2026-05-06 15:42 | 35.97442 | -78.82436 | 6020 ft | 253 kts | 43° |
| 2026-05-06 15:42 | 35.98708 | -78.80927 | 5853 ft | 253 kts | 43° |
| 2026-05-06 15:43 | 35.99969 | -78.79420 | 5706 ft | 250 kts | 43° |
| 2026-05-06 15:43 | 36.01216 | -78.77928 | 5447 ft | 249 kts | 44° |
| 2026-05-06 15:43 | 36.02459 | -78.76425 | 5152 ft | 250 kts | 44° |
| 2026-05-06 15:43 | 36.03686 | -78.74930 | 4917 ft | 247 kts | 44° |
| 2026-05-06 15:44 | 36.04877 | -78.73462 | 4651 ft | 243 kts | 45° |
| 2026-05-06 15:44 | 36.06065 | -78.71992 | 4372 ft | 238 kts | 44° |
| 2026-05-06 15:44 | 36.07225 | -78.70561 | 4112 ft | 233 kts | 45° |
| 2026-05-06 15:44 | 36.08301 | -78.69111 | 3839 ft | 227 kts | 59° |
| 2026-05-06 15:45 | 36.08723 | -78.67319 | 3683 ft | 216 kts | 97° |
| 2026-05-06 15:45 | 36.08242 | -78.65611 | 3561 ft | 210 kts | 133° |
| 2026-05-06 15:45 | 36.07228 | -78.64358 | 3484 ft | 204 kts | 140° |
| 2026-05-06 15:45 | 36.06141 | -78.63259 | 3358 ft | 200 kts | 159° |
| 2026-05-06 15:46 | 36.04811 | -78.63017 | 3296 ft | 194 kts | 190° |
| 2026-05-06 15:46 | 36.03475 | -78.63284 | 3185 ft | 195 kts | 191° |
| 2026-05-06 15:46 | 36.02138 | -78.63542 | 3060 ft | 195 kts | 191° |
| 2026-05-06 15:46 | 36.00818 | -78.63879 | 3005 ft | 193 kts | 205° |
| 2026-05-06 15:47 | 35.99882 | -78.64978 | 3037 ft | 188 kts | 237° |
| 2026-05-06 15:47 | 35.99054 | -78.66178 | 2969 ft | 181 kts | 214° |
| 2026-05-06 15:47 | 35.98030 | -78.67041 | 2777 ft | 177 kts | 223° |
| 2026-05-06 15:47 | 35.97198 | -78.68138 | 2577 ft | 176 kts | 225° |
| 2026-05-06 15:48 | 35.96322 | -78.69214 | 2350 ft | 178 kts | 224° |
| 2026-05-06 15:48 | 35.95454 | -78.70278 | 2108 ft | 171 kts | 224° |
| 2026-05-06 15:48 | 35.94633 | -78.71293 | 1917 ft | 166 kts | 224° |
| 2026-05-06 15:48 | 35.93846 | -78.72269 | 1672 ft | 158 kts | 224° |
| 2026-05-06 15:49 | 35.93071 | -78.73228 | 1479 ft | 161 kts | 224° |
| 2026-05-06 15:49 | 35.92283 | -78.74207 | 1251 ft | 158 kts | 224° |
| 2026-05-06 15:49 | 35.91520 | -78.75158 | 996 ft | 154 kts | 224° |
| 2026-05-06 15:49 | 35.90785 | -78.76069 | 813 ft | 148 kts | 224° |
| 2026-05-06 15:50 | 35.90054 | -78.76976 | 623 ft | 151 kts | 224° |
| 2026-05-06 15:50 | 35.89311 | -78.77899 | 408 ft | 152 kts | 223° |
| 2026-05-06 15:50 | 35.88633 | -78.78732 | 392 ft | 113 kts | 225° |
| 2026-05-06 15:50 | 35.88228 | -78.79230 | 391 ft | 51 kts | 225° |
| 2026-05-06 15:51 | 35.88125 | -78.79358 | 392 ft | 0 kts | 226° |
| 2026-05-06 15:51 | 35.88124 | -78.79358 | 392 ft | 1 kts | 226° |
| 2026-05-06 15:51 | 35.88109 | -78.79378 | 392 ft | 7 kts | 226° |
| 2026-05-06 15:51 | 35.88059 | -78.79442 | 392 ft | 14 kts | 226° |
| 2026-05-06 15:52 | 35.87975 | -78.79486 | 393 ft | 13 kts | 175° |
| 2026-05-06 15:52 | 35.87936 | -78.79404 | 391 ft | 13 kts | 77° |
| 2026-05-06 15:52 | 35.87900 | -78.79310 | 391 ft | 13 kts | 133° |
| 2026-05-06 15:52 | 35.87873 | -78.79273 | 391 ft | 2 kts | 132° |
| 2026-05-06 15:53 | 35.87872 | -78.79273 | 391 ft | 0 kts | 132° |